Dades meteomassalio
Diari Summary for Setembre 6, 2017 Units:  English    Metric   Both
« Previous Day
Next Day »
Diari Semanal Mensual Anual Personalitzat
  Maxima: Minima: Mijana:
Temperatura: TemperatureC °F 15.0 °F 22.5 °F
Rosada: DewpointC °F 9.6 °F 13.4 °F
Humitat: Humidity % 39 % 58 %
Velocitat del vent: WindSpeedKMH mph 0.0 mph 15.3 mph
Racha vent: WindSpeedGustKMH mph - -
Vent:- - SW
Pressio: PressurehPa in 1019.9 in -
Pluja: 0.0 in    
Historical Graphs
 
 
Tabular Data for Setembre 6, 2017
Time Temperature Dew Point Pressure Wind Wind Speed Wind Gust Humidity Rainfall Rate (Hourly) solar Conditions
TemperatureC °F DewpointC °F PressurehPa in Calm     Humidity % HourlyPrecipMM in SolarRadiationWatts/m^2 W/m2 Conditions
00:01 18.9 °F 14.3 °F 1022.6 in Calm     75 % 0.0 in 0.0 W/m2 CLR
00:06 18.9 °F 14.6 °F 1022.6 in Calm     76 % 0.0 in 0.0 W/m2 CLR
00:11 18.9 °F 14.6 °F 1022.6 in Calm     76 % 0.0 in 0.0 W/m2 CLR
00:16 18.9 °F 14.6 °F 1022.6 in Calm     76 % 0.0 in 0.0 W/m2 CLR
00:21 18.3 °F 14.2 °F 1022.2 in Calm     77 % 0.0 in 0.0 W/m2 CLR
00:26 18.3 °F 14.2 °F 1022.6 in Calm     77 % 0.0 in 0.0 W/m2 CLR
00:31 18.3 °F 14.2 °F 1022.6 in Calm     77 % 0.0 in 0.0 W/m2 CLR
00:36 18.3 °F 14.2 °F 1022.6 in Calm     77 % 0.0 in 0.0 W/m2 CLR
00:41 18.3 °F 14.4 °F 1022.2 in Calm     78 % 0.0 in 0.0 W/m2 CLR
00:46 18.3 °F 14.4 °F 1022.6 in Calm     78 % 0.0 in 0.0 W/m2 CLR
00:51 18.3 °F 14.6 °F 1022.6 in Calm     79 % 0.0 in 0.0 W/m2 CLR
00:56 18.3 °F 14.6 °F 1022.2 in Calm     79 % 0.0 in 0.0 W/m2 CLR
01:01 18.3 °F 14.6 °F 1022.2 in Calm     79 % 0.0 in 0.0 W/m2 CLR
01:06 18.3 °F 14.8 °F 1022.6 in Calm     80 % 0.0 in 0.0 W/m2 CLR
01:11 18.3 °F 14.8 °F 1022.6 in Calm     80 % 0.0 in 0.0 W/m2 CLR
01:16 18.3 °F 15.0 °F 1022.6 in Calm     81 % 0.0 in 0.0 W/m2 CLR
01:21 18.3 °F 15.0 °F 1022.6 in Calm     81 % 0.0 in 0.0 W/m2 CLR
01:26 18.9 °F 15.6 °F 1022.6 in Calm     81 % 0.0 in 0.0 W/m2 CLR
01:31 18.9 °F 15.6 °F 1022.9 in Calm     81 % 0.0 in 0.0 W/m2 CLR
01:36 18.9 °F 15.7 °F 1022.9 in Calm     82 % 0.0 in 0.0 W/m2 CLR
01:41 18.9 °F 15.7 °F 1022.9 in SW 20.4 mph 20.4 mph 82 % 0.0 in 0.0 W/m2 CLR
01:46 18.9 °F 14.3 °F 1022.9 in West 16.7 mph 16.7 mph 75 % 0.0 in 0.0 W/m2 CLR
01:51 18.9 °F 13.5 °F 1022.9 in WSW 11.1 mph 11.1 mph 71 % 0.0 in 0.0 W/m2 CLR
01:56 18.9 °F 13.3 °F 1022.9 in SSW 5.6 mph 5.6 mph 70 % 0.0 in 0.0 W/m2 CLR
02:01 19.4 °F 13.8 °F 1022.9 in Calm     70 % 0.0 in 0.0 W/m2 CLR
02:06 20.0 °F 14.1 °F 1022.9 in Calm     69 % 0.0 in 0.0 W/m2 CLR
02:11 20.0 °F 14.3 °F 1022.9 in Calm     70 % 0.0 in 0.0 W/m2 CLR
02:16 20.0 °F 14.3 °F 1022.9 in Calm     70 % 0.0 in 0.0 W/m2 CLR
02:21 20.6 °F 14.9 °F 1022.9 in Calm     70 % 0.0 in 0.0 W/m2 CLR
02:26 20.6 °F 15.1 °F 1022.9 in SW 6.4 mph 6.4 mph 71 % 0.0 in 0.0 W/m2 CLR
02:31 20.0 °F 14.6 °F 1023.2 in SW 9.7 mph 9.7 mph 71 % 0.0 in 0.0 W/m2 CLR
02:36 20.0 °F 14.6 °F 1023.2 in SSW 5.6 mph 5.6 mph 71 % 0.0 in 0.0 W/m2 CLR
02:41 19.4 °F 14.3 °F 1023.2 in Calm     72 % 0.0 in 0.0 W/m2 CLR
02:46 19.4 °F 14.3 °F 1023.2 in Calm     72 % 0.0 in 0.0 W/m2 CLR
02:51 19.4 °F 14.3 °F 1023.2 in SSW 5.6 mph 5.6 mph 72 % 0.0 in 0.0 W/m2 CLR
02:56 18.9 °F 13.7 °F 1023.2 in South 1.9 mph   72 % 0.0 in 0.0 W/m2 CLR
03:01 18.3 °F 13.4 °F 1023.6 in Calm     73 % 0.0 in 0.0 W/m2 CLR
03:06 18.3 °F 13.4 °F 1023.6 in SSE 9.3 mph   73 % 0.0 in 0.0 W/m2 CLR
03:11 18.3 °F 13.4 °F 1023.6 in SSW 16.7 mph 16.7 mph 73 % 0.0 in 0.0 W/m2 CLR
03:17 18.3 °F 13.2 °F 1023.6 in SSW 14.8 mph 14.8 mph 72 % 0.0 in 0.0 W/m2 CLR
03:22 18.9 °F 13.5 °F 1023.6 in South 11.3 mph 11.3 mph 71 % 0.0 in 0.0 W/m2 CLR
03:27 19.4 °F 13.8 °F 1023.6 in SSW 11.1 mph 11.1 mph 70 % 0.0 in 0.0 W/m2 CLR
03:32 19.4 °F 13.8 °F 1023.6 in SSW 11.1 mph 11.1 mph 70 % 0.0 in 0.0 W/m2 CLR
03:37 20.0 °F 14.1 °F 1023.6 in South 13.0 mph 13.0 mph 69 % 0.0 in 0.0 W/m2 CLR
03:42 20.0 °F 14.1 °F 1023.6 in SSW 11.1 mph 11.1 mph 69 % 0.0 in 0.0 W/m2 CLR
03:47 20.0 °F 14.1 °F 1023.6 in South 5.6 mph 5.6 mph 69 % 0.0 in 0.0 W/m2 CLR
03:52 20.0 °F 14.1 °F 1023.6 in South 5.6 mph   69 % 0.0 in 0.0 W/m2 CLR
03:57 20.0 °F 13.9 °F 1023.9 in SSW 8.0 mph 8.0 mph 68 % 0.0 in 0.0 W/m2 CLR
04:02 19.4 °F 13.4 °F 1023.6 in South 13.0 mph 13.0 mph 68 % 0.0 in 0.0 W/m2 CLR
04:07 19.4 °F 13.4 °F 1023.6 in South 14.8 mph 14.8 mph 68 % 0.0 in 0.0 W/m2 CLR
04:12 20.0 °F 13.7 °F 1023.6 in SE 11.1 mph 11.1 mph 67 % 0.0 in 0.0 W/m2 CLR
04:17 19.4 °F 13.2 °F 1023.6 in SSW 9.7 mph 9.7 mph 67 % 0.0 in 0.0 W/m2 CLR
04:22 19.4 °F 13.2 °F 1023.6 in SSE 8.0 mph 8.0 mph 67 % 0.0 in 0.0 W/m2 CLR
04:27 19.4 °F 13.2 °F 1023.6 in South 7.4 mph 7.4 mph 67 % 0.0 in 0.0 W/m2 CLR
04:32 18.9 °F 12.6 °F 1023.6 in South 11.1 mph 11.1 mph 67 % 0.0 in 0.0 W/m2 CLR
04:37 18.9 °F 12.8 °F 1023.6 in SSE 8.0 mph 8.0 mph 68 % 0.0 in 0.0 W/m2 CLR
04:42 18.9 °F 12.8 °F 1023.6 in South 9.3 mph 9.3 mph 68 % 0.0 in 0.0 W/m2 CLR
04:47 18.9 °F 12.8 °F 1023.6 in SSE 9.3 mph 9.3 mph 68 % 0.0 in 0.0 W/m2 CLR
04:52 18.9 °F 12.8 °F 1023.6 in South 11.1 mph 11.1 mph 68 % 0.0 in 0.0 W/m2 CLR
04:57 18.9 °F 12.8 °F 1023.6 in South 9.3 mph 9.3 mph 68 % 0.0 in 0.0 W/m2 CLR
05:02 18.9 °F 12.8 °F 1023.6 in South 11.1 mph 11.1 mph 68 % 0.0 in 0.0 W/m2 CLR
05:07 18.9 °F 12.8 °F 1023.6 in SSW 11.3 mph 11.3 mph 68 % 0.0 in 0.0 W/m2 CLR
05:12 18.9 °F 12.6 °F 1023.6 in SSW 13.0 mph 13.0 mph 67 % 0.0 in 0.0 W/m2 CLR
05:17 18.9 °F 12.6 °F 1023.6 in South 11.3 mph 11.3 mph 67 % 0.0 in 0.0 W/m2 CLR
05:22 18.9 °F 12.6 °F 1023.6 in South 11.1 mph 11.1 mph 67 % 0.0 in 0.0 W/m2 CLR
05:27 18.9 °F 12.6 °F 1023.6 in Calm     67 % 0.0 in 0.0 W/m2 CLR
05:32 18.9 °F 12.6 °F 1023.6 in South 8.0 mph 8.0 mph 67 % 0.0 in 0.0 W/m2 CLR
05:37 18.9 °F 12.6 °F 1023.6 in SSW 6.4 mph 6.4 mph 67 % 0.0 in 0.0 W/m2 CLR
05:42 18.9 °F 12.6 °F 1023.6 in Calm     67 % 0.0 in 0.0 W/m2 CLR
05:47 18.3 °F 12.1 °F 1023.6 in South 3.7 mph 3.7 mph 67 % 0.0 in 0.0 W/m2 CLR
05:52 18.3 °F 12.1 °F 1023.6 in South 1.6 mph 1.6 mph 67 % 0.0 in 0.0 W/m2 CLR
05:57 18.3 °F 12.1 °F 1023.6 in SSE 13.0 mph 13.0 mph 67 % 0.0 in 0.0 W/m2 CLR
06:02 18.3 °F 12.1 °F 1023.6 in South 1.9 mph   67 % 0.0 in 0.0 W/m2 CLR
06:07 18.3 °F 12.1 °F 1023.6 in South 11.1 mph 11.1 mph 67 % 0.0 in 0.0 W/m2 CLR
06:12 18.3 °F 12.1 °F 1023.6 in South 11.1 mph 11.1 mph 67 % 0.0 in 0.0 W/m2 CLR
06:17 18.3 °F 12.1 °F 1023.6 in SSE 11.1 mph 11.1 mph 67 % 0.0 in 0.0 W/m2 CLR
06:22 17.8 °F 11.6 °F 1023.9 in Calm     67 % 0.0 in 0.0 W/m2 CLR
06:27 17.8 °F 11.6 °F 1023.9 in SSW 3.7 mph 3.7 mph 67 % 0.0 in 0.0 W/m2 CLR
06:32 17.8 °F 11.8 °F 1023.9 in Calm     68 % 0.0 in 0.0 W/m2 CLR
06:37 17.8 °F 11.8 °F 1023.9 in Calm     68 % 0.0 in 0.0 W/m2 CLR
06:42 17.2 °F 11.3 °F 1023.9 in South 14.8 mph 14.8 mph 68 % 0.0 in 0.0 W/m2 CLR
06:47 17.2 °F 11.3 °F 1023.9 in South 5.6 mph 5.6 mph 68 % 0.0 in 0.0 W/m2 CLR
06:52 16.7 °F 10.7 °F 1023.9 in Calm     68 % 0.0 in 0.0 W/m2 CLR
06:57 16.7 °F 10.7 °F 1023.9 in South 9.3 mph 9.3 mph 68 % 0.0 in 0.0 W/m2 CLR
07:02 16.7 °F 10.9 °F 1023.9 in SSE 7.4 mph 7.4 mph 69 % 0.0 in 0.0 W/m2 CLR
07:07 16.1 °F 10.4 °F 1023.9 in South 13.0 mph 13.0 mph 69 % 0.0 in 0.0 W/m2 CLR
07:12 16.1 °F 10.4 °F 1023.9 in Calm     69 % 0.0 in 0.0 W/m2 CLR
07:17 16.1 °F 10.4 °F 1023.9 in South 1.6 mph   69 % 0.0 in 0.0 W/m2 CLR
07:22 15.6 °F 9.9 °F 1023.9 in South 5.6 mph   69 % 0.0 in 0.0 W/m2 OVC
07:27 15.6 °F 9.9 °F 1023.9 in Calm     69 % 0.0 in 0.0 W/m2 OVC
07:32 15.6 °F 10.1 °F 1024.3 in Calm     70 % 0.0 in 5.0 W/m2 OVC
07:37 15.0 °F 9.6 °F 1024.3 in SSE 8.0 mph 8.0 mph 70 % 0.0 in 7.0 W/m2 BKN
07:42 15.0 °F 9.6 °F 1024.3 in SSE 8.0 mph 8.0 mph 70 % 0.0 in 11.0 W/m2 BKN
07:47 15.0 °F 9.8 °F 1024.3 in Calm     71 % 0.0 in 14.0 W/m2 BKN
07:52 15.0 °F 9.8 °F 1024.3 in South 6.4 mph 6.4 mph 71 % 0.0 in 18.0 W/m2 BKN
07:57 15.0 °F 9.8 °F 1024.3 in South 14.8 mph 14.8 mph 71 % 0.0 in 23.0 W/m2 BKN
08:02 15.6 °F 10.1 °F 1024.3 in South 9.3 mph 9.3 mph 70 % 0.0 in 33.0 W/m2 BKN
08:07 16.1 °F 10.8 °F 1024.3 in South 7.4 mph 7.4 mph 71 % 0.0 in 49.0 W/m2 BKN
08:12 16.7 °F 11.2 °F 1024.3 in SSW 9.3 mph 9.3 mph 70 % 0.0 in 62.0 W/m2 SCT
08:17 17.2 °F 11.7 °F 1024.3 in SSW 9.7 mph 9.7 mph 70 % 0.0 in 81.0 W/m2 FEW
08:22 18.3 °F 12.3 °F 1024.3 in SSW 16.7 mph 16.7 mph 68 % 0.0 in 102.0 W/m2 CLR
08:27 18.3 °F 12.3 °F 1024.3 in SSW 14.8 mph 14.8 mph 68 % 0.0 in 107.0 W/m2 CLR
08:32 18.9 °F 12.8 °F 1024.3 in SSW 14.8 mph 14.8 mph 68 % 0.0 in 118.0 W/m2 CLR
08:37 18.9 °F 12.6 °F 1024.3 in SSW 18.5 mph 18.5 mph 67 % 0.0 in 162.0 W/m2 CLR
08:42 19.4 °F 13.2 °F 1024.6 in SSW 13.0 mph 13.0 mph 67 % 0.0 in 98.0 W/m2 CLR
08:47 20.0 °F 13.4 °F 1024.6 in SSW 13.0 mph 13.0 mph 66 % 0.0 in 199.0 W/m2 CLR
08:52 20.0 °F 13.2 °F 1024.6 in SSW 18.5 mph 18.5 mph 65 % 0.0 in 237.0 W/m2 CLR
08:57 20.0 °F 13.2 °F 1024.6 in South 20.9 mph 20.9 mph 65 % 0.0 in 206.0 W/m2 CLR
09:02 20.6 °F 14.0 °F 1024.6 in SSW 18.5 mph 18.5 mph 66 % 0.0 in 204.0 W/m2 CLR
09:07 20.6 °F 13.7 °F 1024.6 in South 25.9 mph 25.9 mph 65 % 0.0 in 165.0 W/m2 CLR
09:12 20.6 °F 14.0 °F 1024.6 in South 22.2 mph 22.2 mph 66 % 0.0 in 232.0 W/m2 CLR
09:17 20.6 °F 13.7 °F 1024.6 in South 22.5 mph 22.5 mph 65 % 0.0 in 272.0 W/m2 CLR
09:22 20.6 °F 13.7 °F 1024.6 in SW 22.5 mph 22.5 mph 65 % 0.0 in 304.0 W/m2 CLR
09:27 20.6 °F 13.7 °F 1024.6 in SSW 24.1 mph 24.1 mph 65 % 0.0 in 308.0 W/m2 CLR
09:32 20.6 °F 13.7 °F 1024.6 in SSW 18.5 mph 18.5 mph 65 % 0.0 in 322.0 W/m2 CLR
09:37 20.6 °F 13.7 °F 1024.6 in South 17.7 mph 17.7 mph 65 % 0.0 in 334.0 W/m2 CLR
09:42 20.6 °F 13.7 °F 1024.6 in SSW 24.1 mph 24.1 mph 65 % 0.0 in 346.0 W/m2 CLR
09:47 20.6 °F 13.7 °F 1024.6 in South 24.1 mph 24.1 mph 65 % 0.0 in 362.0 W/m2 CLR
09:52 21.1 °F 14.3 °F 1024.6 in SSW 24.1 mph 24.1 mph 65 % 0.0 in 374.0 W/m2 CLR
09:57 21.1 °F 14.3 °F 1024.6 in SW 27.8 mph 27.8 mph 65 % 0.0 in 385.0 W/m2 CLR
10:02 21.1 °F 14.3 °F 1024.6 in SSW 22.2 mph 22.2 mph 65 % 0.0 in 397.0 W/m2 CLR
10:07 21.1 °F 14.1 °F 1024.6 in South 16.7 mph 16.7 mph 64 % 0.0 in 410.0 W/m2 CLR
10:12 21.1 °F 13.8 °F 1024.6 in SSW 25.9 mph 25.9 mph 63 % 0.0 in 427.0 W/m2 CLR
10:17 21.1 °F 13.8 °F 1024.6 in SSW 27.8 mph 27.8 mph 63 % 0.0 in 441.0 W/m2 CLR
10:22 21.7 °F 14.3 °F 1024.6 in WSW 24.1 mph 24.1 mph 63 % 0.0 in 454.0 W/m2 CLR
10:28 21.7 °F 14.1 °F 1024.6 in SSW 24.1 mph 24.1 mph 62 % 0.0 in 466.0 W/m2 CLR
10:33 21.7 °F 14.3 °F 1024.9 in SW 22.5 mph 22.5 mph 63 % 0.0 in 482.0 W/m2 CLR
10:38 21.7 °F 14.1 °F 1024.6 in SW 27.4 mph 27.4 mph 62 % 0.0 in 494.0 W/m2 CLR
10:43 21.7 °F 13.8 °F 1024.6 in WSW 20.4 mph 20.4 mph 61 % 0.0 in 450.0 W/m2 CLR
10:48 22.2 °F 14.3 °F 1024.6 in SW 29.6 mph 29.6 mph 61 % 0.0 in 519.0 W/m2 CLR
10:53 22.2 °F 14.3 °F 1024.6 in SSW 14.8 mph 16.6 mph 61 % 0.0 in 533.0 W/m2 CLR
10:58 22.2 °F 14.3 °F 1024.6 in South 18.5 mph 18.5 mph 61 % 0.0 in 541.0 W/m2 CLR
11:03 22.2 °F 14.1 °F 1024.6 in SSW 22.2 mph 22.2 mph 60 % 0.0 in 557.0 W/m2 CLR
11:08 22.8 °F 14.9 °F 1024.6 in SSW 22.5 mph 22.5 mph 61 % 0.0 in 570.0 W/m2 CLR
11:13 22.8 °F 14.6 °F 1024.6 in SSW 20.4 mph 20.4 mph 60 % 0.0 in 582.0 W/m2 CLR
11:18 22.8 °F 14.6 °F 1024.6 in SW 22.2 mph 22.2 mph 60 % 0.0 in 592.0 W/m2 CLR
11:23 23.3 °F 15.1 °F 1024.3 in South 29.0 mph 29.0 mph 60 % 0.0 in 606.0 W/m2 CLR
11:28 23.3 °F 14.9 °F 1024.6 in SSW 20.4 mph 20.4 mph 59 % 0.0 in 615.0 W/m2 CLR
11:33 23.3 °F 14.9 °F 1024.6 in South 24.1 mph 24.1 mph 59 % 0.0 in 617.0 W/m2 CLR
11:38 23.3 °F 14.9 °F 1024.3 in SW 25.9 mph 25.9 mph 59 % 0.0 in 526.0 W/m2 CLR
11:43 23.3 °F 14.6 °F 1024.3 in WSW 18.5 mph 18.5 mph 58 % 0.0 in 633.0 W/m2 CLR
11:48 23.3 °F 14.3 °F 1024.3 in SSW 22.5 mph 22.5 mph 57 % 0.0 in 663.0 W/m2 CLR
11:53 23.9 °F 14.8 °F 1024.3 in WSW 29.6 mph 29.6 mph 57 % 0.0 in 666.0 W/m2 CLR
11:58 24.4 °F 15.4 °F 1024.3 in SSW 20.4 mph 20.4 mph 57 % 0.0 in 677.0 W/m2 CLR
12:03 24.4 °F 15.1 °F 1023.9 in SW 25.9 mph 25.9 mph 56 % 0.0 in 686.0 W/m2 CLR
12:08 24.4 °F 14.8 °F 1023.9 in SW 18.5 mph 18.5 mph 55 % 0.0 in 694.0 W/m2 CLR
12:13 24.4 °F 15.1 °F 1023.9 in WSW 14.8 mph 14.8 mph 56 % 0.0 in 700.0 W/m2 CLR
12:18 25.0 °F 15.1 °F 1023.9 in South 18.5 mph 18.5 mph 54 % 0.0 in 710.0 W/m2 CLR
12:23 25.0 °F 15.1 °F 1023.9 in SSW 9.3 mph 9.3 mph 54 % 0.0 in 717.0 W/m2 CLR
12:28 25.0 °F 15.1 °F 1023.9 in WSW 19.3 mph 19.3 mph 54 % 0.0 in 726.0 W/m2 CLR
12:33 25.6 °F 15.6 °F 1023.9 in SW 18.5 mph 18.5 mph 54 % 0.0 in 728.0 W/m2 CLR
12:38 25.6 °F 15.3 °F 1023.9 in WSW 20.4 mph 20.4 mph 53 % 0.0 in 738.0 W/m2 CLR
12:43 25.6 °F 15.3 °F 1023.6 in SW 18.5 mph 18.5 mph 53 % 0.0 in 747.0 W/m2 CLR
12:48 25.6 °F 14.9 °F 1023.6 in SSW 9.3 mph 9.3 mph 52 % 0.0 in 754.0 W/m2 CLR
12:53 26.1 °F 15.5 °F 1023.6 in SW 18.5 mph 18.5 mph 52 % 0.0 in 761.0 W/m2 CLR
12:58 26.1 °F 14.9 °F 1023.6 in West 18.5 mph 18.5 mph 50 % 0.0 in 763.0 W/m2 CLR
13:03 26.1 °F 15.2 °F 1023.6 in WSW 22.5 mph 22.5 mph 51 % 0.0 in 765.0 W/m2 CLR
13:08 26.7 °F 15.7 °F 1023.6 in SW 25.9 mph 25.9 mph 51 % 0.0 in 775.0 W/m2 CLR
13:13 26.7 °F 15.4 °F 1023.2 in SSW 24.1 mph 24.1 mph 50 % 0.0 in 782.0 W/m2 CLR
13:18 26.7 °F 15.4 °F 1023.2 in SW 18.5 mph 18.5 mph 50 % 0.0 in 782.0 W/m2 CLR
13:23 26.7 °F 15.7 °F 1023.2 in WSW 4.8 mph 4.8 mph 51 % 0.0 in 768.0 W/m2 CLR
13:28 27.2 °F 16.2 °F 1023.2 in WSW 22.2 mph 22.2 mph 51 % 0.0 in 782.0 W/m2 CLR
13:33 27.2 °F 15.6 °F 1023.2 in SSE 16.7 mph 16.7 mph 49 % 0.0 in 786.0 W/m2 CLR
13:38 27.2 °F 15.3 °F 1022.9 in South 11.1 mph 11.1 mph 48 % 0.0 in 784.0 W/m2 CLR
13:43 27.2 °F 15.6 °F 1022.9 in WSW 6.4 mph 6.4 mph 49 % 0.0 in 782.0 W/m2 CLR
13:44 27.2 °F 15.3 °F 1022.9 in SSW 24.1 mph 24.1 mph 48 % 0.0 in 780.0 W/m2 CLR
13:49 27.2 °F 15.3 °F 1022.9 in West 18.5 mph 18.5 mph 48 % 0.0 in 780.0 W/m2 CLR
13:54 27.2 °F 15.3 °F 1022.9 in West 18.5 mph 18.5 mph 48 % 0.0 in 782.0 W/m2 CLR
13:59 27.2 °F 15.3 °F 1022.9 in Calm   0.5 mph 48 % 0.0 in 784.0 W/m2 CLR
14:04 27.8 °F 15.1 °F 1022.9 in West 18.5 mph 18.5 mph 46 % 0.0 in 782.0 W/m2 CLR
14:09 27.2 °F 14.6 °F 1022.6 in WSW 29.6 mph 29.6 mph 46 % 0.0 in 784.0 W/m2 CLR
14:14 27.8 °F 15.4 °F 1022.6 in SW 18.5 mph 18.5 mph 47 % 0.0 in 786.0 W/m2 CLR
14:19 27.8 °F 15.4 °F 1022.6 in Calm     47 % 0.0 in 788.0 W/m2 CLR
14:24 28.3 °F 15.6 °F 1022.6 in WSW 20.4 mph 20.4 mph 46 % 0.0 in 786.0 W/m2 CLR
14:25 28.3 °F 15.3 °F 1022.6 in WNW 20.4 mph 20.4 mph 45 % 0.0 in 786.0 W/m2 CLR
14:30 27.8 °F 14.8 °F 1022.6 in SW 18.5 mph 18.5 mph 45 % 0.0 in 782.0 W/m2 CLR
14:35 27.8 °F 14.4 °F 1022.2 in SSW 18.5 mph 18.5 mph 44 % 0.0 in 779.0 W/m2 CLR
14:40 28.3 °F 14.9 °F 1022.2 in West 5.6 mph 5.6 mph 44 % 0.0 in 773.0 W/m2 CLR
14:45 28.3 °F 14.9 °F 1022.2 in South 11.3 mph 11.3 mph 44 % 0.0 in 772.0 W/m2 CLR
14:50 28.3 °F 14.6 °F 1022.2 in West 18.5 mph 18.5 mph 43 % 0.0 in 765.0 W/m2 CLR
14:55 28.9 °F 15.1 °F 1022.2 in SW 18.5 mph 18.5 mph 43 % 0.0 in 765.0 W/m2 CLR
15:00 28.3 °F 15.3 °F 1021.9 in West 20.9 mph 20.9 mph 45 % 0.0 in 758.0 W/m2 CLR
15:05 28.3 °F 15.3 °F 1021.9 in WSW 22.5 mph 22.5 mph 45 % 0.0 in 752.0 W/m2 CLR
15:06 28.3 °F 14.9 °F 1021.9 in WSW 22.2 mph 22.2 mph 44 % 0.0 in 751.0 W/m2 CLR
15:11 28.3 °F 14.9 °F 1021.9 in WSW 13.0 mph 13.0 mph 44 % 0.0 in 742.0 W/m2 CLR
15:16 28.3 °F 14.2 °F 1021.9 in West 13.0 mph 13.0 mph 42 % 0.0 in 738.0 W/m2 CLR
15:21 28.3 °F 14.2 °F 1021.9 in WSW 16.7 mph 16.7 mph 42 % 0.0 in 735.0 W/m2 CLR
15:22 28.3 °F 14.6 °F 1021.9 in WSW 16.7 mph 16.7 mph 43 % 0.0 in 735.0 W/m2 CLR
15:27 28.9 °F 14.7 °F 1021.9 in WSW 11.3 mph 11.3 mph 42 % 0.0 in 728.0 W/m2 CLR
15:32 28.9 °F 14.7 °F 1021.6 in WSW 5.6 mph 5.6 mph 42 % 0.0 in 717.0 W/m2 CLR
15:37 28.3 °F 14.6 °F 1021.6 in West 18.5 mph 18.5 mph 43 % 0.0 in 708.0 W/m2 CLR
15:42 28.9 °F 14.7 °F 1021.6 in WSW 20.4 mph 20.4 mph 42 % 0.0 in 703.0 W/m2 CLR
15:47 28.3 °F 14.2 °F 1021.6 in WSW 18.5 mph 18.5 mph 42 % 0.0 in 694.0 W/m2 CLR
15:52 28.3 °F 14.2 °F 1021.6 in SW 18.5 mph 18.5 mph 42 % 0.0 in 686.0 W/m2 CLR
15:57 28.3 °F 14.2 °F 1021.6 in West 16.1 mph 16.1 mph 42 % 0.0 in 675.0 W/m2 CLR
16:02 28.3 °F 13.8 °F 1021.2 in West 25.9 mph 25.9 mph 41 % 0.0 in 666.0 W/m2 CLR
16:07 28.9 °F 14.3 °F 1021.2 in WSW 17.7 mph 17.7 mph 41 % 0.0 in 661.0 W/m2 CLR
16:12 28.9 °F 13.9 °F 1021.2 in SSW 5.6 mph 5.6 mph 40 % 0.0 in 645.0 W/m2 CLR
16:17 29.4 °F 14.4 °F 1021.2 in WSW 9.7 mph 9.7 mph 40 % 0.0 in 636.0 W/m2 CLR
16:22 29.4 °F 14.4 °F 1020.9 in SW 24.1 mph 24.1 mph 40 % 0.0 in 626.0 W/m2 CLR
16:27 28.9 °F 13.9 °F 1020.9 in West 24.1 mph 24.1 mph 40 % 0.0 in 621.0 W/m2 CLR
16:32 28.9 °F 13.9 °F 1020.9 in SSW 19.3 mph 19.3 mph 40 % 0.0 in 606.0 W/m2 CLR
16:37 28.9 °F 13.6 °F 1020.9 in West 20.4 mph 20.4 mph 39 % 0.0 in 592.0 W/m2 CLR
16:42 28.9 °F 13.9 °F 1020.9 in WNW 16.1 mph 16.1 mph 40 % 0.0 in 580.0 W/m2 CLR
16:47 28.9 °F 13.9 °F 1020.5 in SW 20.4 mph 20.4 mph 40 % 0.0 in 575.0 W/m2 CLR
16:52 28.9 °F 13.9 °F 1020.5 in Calm     40 % 0.0 in 555.0 W/m2 CLR
16:57 28.9 °F 13.9 °F 1020.5 in West 22.2 mph 22.2 mph 40 % 0.0 in 543.0 W/m2 CLR
17:02 29.4 °F 14.4 °F 1020.5 in West 5.6 mph 5.6 mph 40 % 0.0 in 526.0 W/m2 CLR
17:07 29.4 °F 14.4 °F 1020.5 in SW 17.7 mph 17.7 mph 40 % 0.0 in 510.0 W/m2 CLR
17:09 28.9 °F 13.9 °F 1020.5 in WSW 18.5 mph 18.5 mph 40 % 0.0 in 508.0 W/m2 CLR
17:14 29.4 °F 14.4 °F 1020.2 in WSW 17.7 mph 17.7 mph 40 % 0.0 in 492.0 W/m2 CLR
17:19 29.4 °F 14.4 °F 1020.2 in SW 16.7 mph 16.7 mph 40 % 0.0 in 482.0 W/m2 CLR
17:24 29.4 °F 14.4 °F 1020.2 in South 14.8 mph   40 % 0.0 in 464.0 W/m2 CLR
17:29 29.4 °F 14.4 °F 1020.2 in Calm     40 % 0.0 in 450.0 W/m2 CLR
17:34 29.4 °F 14.8 °F 1020.2 in SW 13.0 mph 13.0 mph 41 % 0.0 in 438.0 W/m2 CLR
17:39 29.4 °F 14.4 °F 1020.2 in SW 22.2 mph 22.2 mph 40 % 0.0 in 427.0 W/m2 CLR
17:44 29.4 °F 14.4 °F 1020.2 in WSW 18.5 mph 18.5 mph 40 % 0.0 in 406.0 W/m2 CLR
17:49 28.9 °F 13.9 °F 1019.9 in WSW 7.4 mph 7.4 mph 40 % 0.0 in 392.0 W/m2 CLR
17:54 28.3 °F 13.4 °F 1019.9 in SW 5.6 mph 5.6 mph 40 % 0.0 in 376.0 W/m2 CLR
17:59 28.3 °F 13.4 °F 1019.9 in Calm     40 % 0.0 in 362.0 W/m2 CLR
18:04 28.9 °F 14.3 °F 1019.9 in West 5.6 mph 5.6 mph 41 % 0.0 in 345.0 W/m2 CLR
18:09 28.9 °F 14.3 °F 1019.9 in SSW 7.4 mph 7.4 mph 41 % 0.0 in 332.0 W/m2 CLR
18:14 28.3 °F 13.8 °F 1019.9 in WSW 18.5 mph 18.5 mph 41 % 0.0 in 316.0 W/m2 CLR
18:19 28.3 °F 14.2 °F 1019.9 in West 9.7 mph 9.7 mph 42 % 0.0 in 302.0 W/m2 CLR
18:24 28.3 °F 14.2 °F 1019.9 in WSW 24.1 mph 24.1 mph 42 % 0.0 in 292.0 W/m2 CLR
18:25 28.3 °F 13.8 °F 1019.9 in West 24.1 mph 24.1 mph 41 % 0.0 in 281.0 W/m2 CLR
18:30 28.3 °F 14.6 °F 1019.9 in WSW 18.5 mph 18.5 mph 43 % 0.0 in 269.0 W/m2 CLR
18:35 28.3 °F 14.6 °F 1019.9 in WSW 24.1 mph 24.1 mph 43 % 0.0 in 253.0 W/m2 CLR
18:40 28.3 °F 14.6 °F 1019.9 in SW 22.2 mph 22.2 mph 43 % 0.0 in 237.0 W/m2 CLR
18:45 27.8 °F 14.1 °F 1019.9 in SW 18.5 mph 18.5 mph 43 % 0.0 in 227.0 W/m2 CLR
18:50 27.8 °F 14.1 °F 1019.9 in SW 25.9 mph 25.9 mph 43 % 0.0 in 209.0 W/m2 CLR
18:56 27.8 °F 14.1 °F 1019.9 in WSW 27.8 mph 27.8 mph 43 % 0.0 in 193.0 W/m2 CLR
19:01 27.2 °F 13.6 °F 1019.9 in WSW 18.5 mph 18.5 mph 43 % 0.0 in 174.0 W/m2 CLR
19:06 27.2 °F 13.6 °F 1020.2 in West 22.5 mph 22.5 mph 43 % 0.0 in 158.0 W/m2 CLR
19:11 27.2 °F 13.9 °F 1020.2 in WSW 24.1 mph 24.1 mph 44 % 0.0 in 142.0 W/m2 CLR
19:16 26.7 °F 13.4 °F 1020.2 in SW 27.8 mph 27.8 mph 44 % 0.0 in 127.0 W/m2 CLR
19:21 26.7 °F 13.4 °F 1020.2 in WSW 29.6 mph 29.6 mph 44 % 0.0 in 109.0 W/m2 CLR
19:26 26.7 °F 13.7 °F 1020.2 in West 22.2 mph 22.2 mph 45 % 0.0 in 95.0 W/m2 CLR
19:31 26.7 °F 13.7 °F 1020.2 in WSW 29.6 mph 29.6 mph 45 % 0.0 in 83.0 W/m2 FEW
19:36 26.1 °F 13.2 °F 1019.9 in West 18.5 mph 18.5 mph 45 % 0.0 in 70.0 W/m2 FEW
19:41 26.1 °F 12.9 °F 1020.2 in WSW 31.5 mph 31.5 mph 44 % 0.0 in 53.0 W/m2 SCT
19:46 26.1 °F 12.9 °F 1020.2 in WSW 31.5 mph 31.5 mph 44 % 0.0 in 46.0 W/m2 SCT
19:51 25.6 °F 12.4 °F 1020.2 in WSW 22.2 mph 22.5 mph 44 % 0.0 in 37.0 W/m2 BKN
19:56 25.6 °F 12.4 °F 1020.2 in WSW 25.9 mph 25.9 mph 44 % 0.0 in 30.0 W/m2 BKN
20:01 25.0 °F 11.9 °F 1020.2 in WSW 20.4 mph 20.4 mph 44 % 0.0 in 25.0 W/m2 BKN
20:06 25.0 °F 11.9 °F 1020.2 in WSW 22.2 mph 22.2 mph 44 % 0.0 in 18.0 W/m2 BKN
20:11 25.0 °F 12.2 °F 1020.5 in WSW 32.2 mph 32.2 mph 45 % 0.0 in 14.0 W/m2 BKN
20:12 25.0 °F 12.2 °F 1020.5 in WSW 25.9 mph 25.9 mph 45 % 0.0 in 14.0 W/m2 BKN
20:17 24.4 °F 11.7 °F 1020.5 in WSW 25.9 mph 25.9 mph 45 % 0.0 in 9.0 W/m2 BKN
20:22 24.4 °F 11.7 °F 1020.5 in SW 25.9 mph 25.9 mph 45 % 0.0 in 5.0 W/m2 BKN
20:27 24.4 °F 12.1 °F 1020.5 in WSW 19.3 mph 19.3 mph 46 % 0.0 in 0.0 W/m2 OVC
20:32 24.4 °F 12.1 °F 1020.5 in SW 29.6 mph 29.6 mph 46 % 0.0 in 0.0 W/m2 OVC
20:37 23.9 °F 11.9 °F 1020.5 in WSW 27.8 mph 27.8 mph 47 % 0.0 in 0.0 W/m2 CLR
20:42 23.9 °F 12.2 °F 1020.9 in WSW 38.9 mph 38.9 mph 48 % 0.0 in 0.0 W/m2 CLR
20:47 23.9 °F 12.5 °F 1020.9 in SW 33.3 mph 33.3 mph 49 % 0.0 in 0.0 W/m2 CLR
20:52 23.3 °F 12.0 °F 1020.9 in SW 31.5 mph 31.5 mph 49 % 0.0 in 0.0 W/m2 CLR
20:57 23.3 °F 12.0 °F 1020.9 in WSW 31.5 mph 31.5 mph 49 % 0.0 in 0.0 W/m2 CLR
21:02 23.3 °F 12.3 °F 1021.2 in WSW 35.4 mph 35.4 mph 50 % 0.0 in 0.0 W/m2 CLR
21:07 22.8 °F 11.8 °F 1021.2 in WSW 35.2 mph 35.2 mph 50 % 0.0 in 0.0 W/m2 CLR
21:12 22.8 °F 12.1 °F 1021.2 in WSW 29.6 mph 29.6 mph 51 % 0.0 in 0.0 W/m2 CLR
21:17 22.2 °F 12.2 °F 1021.6 in WSW 32.2 mph 32.2 mph 53 % 0.0 in 0.0 W/m2 CLR
21:22 22.2 °F 12.2 °F 1021.6 in WSW 25.9 mph 25.9 mph 53 % 0.0 in 0.0 W/m2 CLR
21:27 22.2 °F 12.4 °F 1021.9 in SSW 25.9 mph 25.9 mph 54 % 0.0 in 0.0 W/m2 CLR
21:32 21.7 °F 11.9 °F 1021.9 in WSW 27.8 mph 27.8 mph 54 % 0.0 in 0.0 W/m2 CLR
21:37 21.7 °F 12.2 °F 1021.9 in WSW 31.5 mph 31.5 mph 55 % 0.0 in 0.0 W/m2 CLR
21:42 21.7 °F 12.2 °F 1021.9 in WSW 18.5 mph 18.5 mph 55 % 0.0 in 0.0 W/m2 CLR
21:47 21.7 °F 12.2 °F 1022.2 in SSW 40.7 mph 40.7 mph 55 % 0.0 in 0.0 W/m2 CLR
21:52 21.7 °F 12.2 °F 1022.2 in SW 35.2 mph 35.2 mph 55 % 0.0 in 0.0 W/m2 CLR
21:57 21.7 °F 12.2 °F 1022.2 in SW 24.1 mph 24.1 mph 55 % 0.0 in 0.0 W/m2 CLR
22:02 21.1 °F 11.7 °F 1022.2 in WSW 27.8 mph 27.8 mph 55 % 0.0 in 0.0 W/m2 CLR
22:07 21.1 °F 11.7 °F 1022.2 in SW 35.2 mph 35.2 mph 55 % 0.0 in 0.0 W/m2 CLR
22:12 21.1 °F 11.7 °F 1022.2 in WSW 31.5 mph 31.5 mph 55 % 0.0 in 0.0 W/m2 CLR
22:17 21.1 °F 11.7 °F 1022.6 in SW 38.9 mph 38.9 mph 55 % 0.0 in 0.0 W/m2 CLR
22:22 20.6 °F 11.2 °F 1022.6 in SW 27.8 mph 27.8 mph 55 % 0.0 in 0.0 W/m2 CLR
22:27 20.6 °F 11.4 °F 1022.6 in SSW 22.2 mph 22.2 mph 56 % 0.0 in 0.0 W/m2 CLR
22:32 20.6 °F 11.4 °F 1022.6 in SSE 24.1 mph 24.1 mph 56 % 0.0 in 0.0 W/m2 CLR
22:37 20.6 °F 11.4 °F 1022.6 in SSW 25.7 mph 25.7 mph 56 % 0.0 in 0.0 W/m2 CLR
22:42 20.6 °F 11.4 °F 1022.6 in SSE 27.8 mph 27.8 mph 56 % 0.0 in 0.0 W/m2 CLR
22:47 20.6 °F 11.4 °F 1022.6 in SSW 24.1 mph 24.1 mph 56 % 0.0 in 0.0 W/m2 CLR
22:52 20.0 °F 10.9 °F 1022.9 in SSW 6.4 mph 6.4 mph 56 % 0.0 in 0.0 W/m2 CLR
22:57 20.0 °F 10.9 °F 1022.9 in SSW 16.7 mph 16.7 mph 56 % 0.0 in 0.0 W/m2 CLR
23:02 20.0 °F 10.9 °F 1022.9 in SSW 20.4 mph 20.4 mph 56 % 0.0 in 0.0 W/m2 CLR
23:07 20.0 °F 10.9 °F 1022.9 in Calm   2.3 mph 56 % 0.0 in 0.0 W/m2 CLR
23:12 19.4 °F 10.4 °F 1022.9 in South 22.2 mph 22.2 mph 56 % 0.0 in 0.0 W/m2 CLR
23:17 19.4 °F 10.7 °F 1023.2 in SSW 16.7 mph 16.7 mph 57 % 0.0 in 0.0 W/m2 CLR
23:22 19.4 °F 10.7 °F 1023.2 in SSW 14.8 mph 14.8 mph 57 % 0.0 in 0.0 W/m2 CLR
23:27 19.4 °F 10.7 °F 1023.2 in SSW 5.6 mph 5.6 mph 57 % 0.0 in 0.0 W/m2 CLR
23:32 19.4 °F 10.7 °F 1023.2 in SSW 6.4 mph 6.4 mph 57 % 0.0 in 0.0 W/m2 CLR
23:37 18.9 °F 10.4 °F 1023.2 in SSW 20.4 mph 20.4 mph 58 % 0.0 in 0.0 W/m2 CLR
23:42 18.9 °F 10.4 °F 1023.2 in SSW 22.5 mph 22.5 mph 58 % 0.0 in 0.0 W/m2 CLR
23:47 18.9 °F 10.4 °F 1023.2 in SSW 20.4 mph 20.4 mph 58 % 0.0 in 0.0 W/m2 CLR
23:52 18.9 °F 10.7 °F 1023.2 in South 16.7 mph 16.7 mph 59 % 0.0 in 0.0 W/m2 CLR
23:57 18.9 °F 10.7 °F 1023.2 in SW 20.4 mph 20.4 mph 59 % 0.0 in 0.0 W/m2 CLR
Lo Temps de Massalio
Compliments of Weather Underground - 1.25 mb